Time;durP1;ratioP1;P1;durP2;ratioP2;P2;SDS_P1;SDS_P2;PMS_P1;PMS_P2;Temp;Humidity;BMP_temperature;BMP_pressure;BME280_temperature;BME280_humidity;BME280_pressure;Samples;Min_cycle;Max_cycle;Signal;HPM_P1;HPM_P2
2023/02/14 00:02:24;;;;;;;5.03;1.03;;;;;;;-0.27;100.00;102248.59;5102736;28;20455;-47
2023/02/14 00:04:51;;;;;;;0.77;0.77;;;;;;;-0.32;100.00;102245.72;5101964;28;20900;-47
2023/02/14 00:07:17;;;;;;;0.77;0.77;;;;;;;-0.35;100.00;102247.31;5108966;28;20494;-48
2023/02/14 00:09:44;;;;;;;1.37;1.27;;;;;;;-0.38;100.00;102247.19;5109277;28;20480;-51
2023/02/14 00:12:10;;;;;;;1.53;1.53;;;;;;;-0.34;100.00;102239.53;5102554;28;20475;-47
2023/02/14 00:17:21;;;;;;;2.63;1.50;;;;;;;-0.47;100.00;102242.41;5105964;28;20572;-48
2023/02/14 00:19:48;;;;;;;1.03;1.03;;;;;;;-0.56;100.00;102241.94;5107477;28;20441;-48
2023/02/14 00:22:14;;;;;;;3.50;1.57;;;;;;;-0.51;100.00;102242.19;5080073;28;20483;-47
2023/02/14 00:24:41;;;;;;;1.83;1.73;;;;;;;-0.45;100.00;102239.84;5108904;28;21021;-47
2023/02/14 00:27:07;;;;;;;1.20;0.53;;;;;;;-0.51;100.00;102234.34;5101793;28;20448;-47
2023/02/14 00:29:34;;;;;;;4.20;0.70;;;;;;;-0.78;100.00;102244.38;5108845;28;20447;-47
2023/02/14 00:32:01;;;;;;;1.23;1.07;;;;;;;-0.77;100.00;102241.81;5106967;28;20821;-48
2023/02/14 00:34:28;;;;;;;1.40;1.40;;;;;;;-0.53;100.00;102236.91;5101592;28;20454;-47
2023/02/14 00:36:54;;;;;;;1.70;0.73;;;;;;;-0.72;100.00;102244.66;5102792;28;20492;-47
2023/02/14 00:39:21;;;;;;;0.67;0.67;;;;;;;-0.65;100.00;102239.81;5108428;28;20449;-48
2023/02/14 00:41:47;;;;;;;5.63;2.60;;;;;;;-0.82;100.00;102245.94;5107278;28;20555;-47
2023/02/14 00:44:14;;;;;;;0.60;0.60;;;;;;;-0.69;100.00;102242.19;5101111;28;20444;-48
2023/02/14 00:46:40;;;;;;;1.13;1.10;;;;;;;-0.78;100.00;102246.97;5102736;28;20893;-48
2023/02/14 00:49:07;;;;;;;1.70;0.83;;;;;;;-0.66;100.00;102244.97;5108214;28;20824;-48
2023/02/14 00:51:33;;;;;;;0.97;0.97;;;;;;;-0.70;100.00;102240.38;5098630;28;20469;-48
2023/02/14 00:54:00;;;;;;;2.30;2.20;;;;;;;-0.74;100.00;102235.84;5108194;28;20963;-47
2023/02/14 00:56:27;;;;;;;2.43;0.83;;;;;;;-0.76;100.00;102242.72;5107098;28;20531;-48
2023/02/14 00:58:53;;;;;;;0.43;0.40;;;;;;;-0.88;100.00;102242.13;5101049;28;21061;-47
2023/02/14 01:01:20;;;;;;;1.43;1.37;;;;;;;-0.95;100.00;102240.94;5102123;28;20461;-47
2023/02/14 01:03:47;;;;;;;1.50;1.50;;;;;;;-0.88;100.00;102244.72;5108159;28;20445;-47
2023/02/14 01:06:14;;;;;;;0.77;0.67;;;;;;;-0.93;100.00;102237.56;5107557;28;20797;-48
2023/02/14 01:08:40;;;;;;;1.10;1.00;;;;;;;-0.93;100.00;102237.56;5100830;28;20443;-47
2023/02/14 01:11:13;;;;;;;0.30;0.30;;;;;;;-0.92;100.00;102241.97;5101258;28;20475;-48
2023/02/14 01:13:40;;;;;;;0.30;0.30;;;;;;;-1.06;100.00;102242.09;5102170;28;20444;-47
2023/02/14 01:16:09;;;;;;;2.20;2.10;;;;;;;-1.10;100.00;102243.66;5083032;28;20829;-48
2023/02/14 01:18:36;;;;;;;0.80;0.30;;;;;;;-1.07;100.00;102243.81;5105999;28;20484;-47
2023/02/14 01:21:20;;;;;;;6.83;2.77;;;;;;;-1.21;100.00;102237.03;5096742;28;20968;-47
2023/02/14 01:23:49;;;;;;;0.87;0.87;;;;;;;-1.22;100.00;102238.72;5104739;28;20450;-48
2023/02/14 01:26:16;;;;;;;3.00;2.70;;;;;;;-1.24;100.00;102239.44;5100725;28;20452;-47
2023/02/14 01:28:43;;;;;;;1.73;1.63;;;;;;;-1.21;100.00;102237.03;5107717;28;20449;-48
2023/02/14 01:31:11;;;;;;;1.17;0.97;;;;;;;-1.23;100.00;102236.06;5100289;28;20459;-48
2023/02/14 01:33:39;;;;;;;2.00;1.90;;;;;;;-1.18;100.00;102237.16;5102510;28;20469;-48
2023/02/14 01:36:06;;;;;;;1.10;1.10;;;;;;;-1.25;100.00;102230.72;5107569;28;20453;-48
2023/02/14 01:38:33;;;;;;;0.93;0.77;;;;;;;-1.23;100.00;102236.06;5105824;28;20608;-48
2023/02/14 01:40:59;;;;;;;2.40;2.10;;;;;;;-1.11;100.00;102241.84;5100099;28;21056;-48
2023/02/14 01:43:26;;;;;;;7.53;3.07;;;;;;;-1.17;100.00;102232.84;5101031;28;20445;-48
2023/02/14 01:45:53;;;;;;;1.43;1.43;;;;;;;-1.18;100.00;102231.06;5107254;28;20546;-48
2023/02/14 01:48:21;;;;;;;1.70;1.63;;;;;;;-1.27;100.00;102234.97;5105823;28;20448;-48
2023/02/14 01:50:51;;;;;;;0.93;0.93;;;;;;;-1.31;100.00;102235.66;5083130;28;20468;-48
2023/02/14 01:53:24;;;;;;;1.30;1.27;;;;;;;-1.22;100.00;102248.28;5100880;28;20596;-48
2023/02/14 01:55:59;;;;;;;0.50;0.50;;;;;;;-1.30;100.00;102247.88;5087982;28;20442;-48
2023/02/14 01:58:33;;;;;;;1.13;0.70;;;;;;;-1.28;100.00;102248.84;5100052;28;20605;-47
2023/02/14 02:01:02;;;;;;;1.43;0.67;;;;;;;-1.30;100.00;102252.19;5104036;28;20590;-47
2023/02/14 02:03:36;;;;;;;1.23;1.03;;;;;;;-1.36;100.00;102246.69;5107075;28;20480;-48
2023/02/14 02:06:18;;;;;;;1.00;1.00;;;;;;;-1.30;100.00;102247.88;5104294;28;20527;-48
2023/02/14 02:09:16;;;;;;;2.13;2.03;;;;;;;-1.36;100.00;102242.34;5106746;28;20444;-47
2023/02/14 02:11:43;;;;;;;3.73;0.80;;;;;;;-1.21;100.00;102243.13;5102413;28;20469;-48
2023/02/14 02:14:16;;;;;;;0.70;0.70;;;;;;;-1.24;100.00;102247.28;5096102;28;20452;-48
2023/02/14 02:16:51;;;;;;;3.57;0.87;;;;;;;-1.38;100.00;102243.97;5099570;28;20859;-47
2023/02/14 02:19:37;;;;;;;0.70;0.60;;;;;;;-1.43;100.00;102244.56;5099271;28;20489;-47
2023/02/14 02:22:28;;;;;;;6.43;2.00;;;;;;;-1.46;100.00;102240.09;5095817;28;20480;-48
2023/02/14 02:25:00;;;;;;;2.20;1.10;;;;;;;-1.45;100.00;102243.59;5086338;28;20454;-48
2023/02/14 02:27:51;;;;;;;2.97;2.77;;;;;;;-1.54;100.00;102233.56;5091930;28;20450;-47
2023/02/14 02:31:09;;;;;;;0.30;0.23;;;;;;;-1.52;100.00;102238.03;5104209;28;20565;-47
2023/02/14 02:33:53;;;;;;;1.50;1.40;;;;;;;-1.47;100.00;102230.47;5039008;28;20446;-47
2023/02/14 02:36:28;;;;;;;0.60;0.60;;;;;;;-1.67;100.00;102237.25;5086848;28;20448;-47
2023/02/14 02:39:13;;;;;;;0.80;0.80;;;;;;;-1.52;100.00;102239.75;5099448;28;20507;-48
2023/02/14 02:41:52;;;;;;;3.40;1.70;;;;;;;-1.51;100.00;102238.94;5101702;28;20984;-48
2023/02/14 02:44:52;;;;;;;1.10;1.10;;;;;;;-1.44;100.00;102234.94;5106142;28;20449;-48
2023/02/14 02:47:30;;;;;;;0.40;0.40;;;;;;;-1.36;100.00;102241.47;5106119;28;20526;-47
2023/02/14 02:53:50;;;;;;;4.57;3.50;;;;;;;-1.34;100.00;102232.00;5083203;28;20911;-47
2023/02/14 02:56:45;;;;;;;25.27;4.43;;;;;;;-1.31;100.00;102233.03;5103693;28;20448;-48
2023/02/14 02:59:23;;;;;;;3.20;2.30;;;;;;;-1.24;100.00;102235.13;5103939;28;21052;-47
2023/02/14 03:01:56;;;;;;;1.27;1.17;;;;;;;-1.11;100.00;102234.03;5105950;28;20464;-48
2023/02/14 03:09:57;;;;;;;4.47;2.80;;;;;;;-1.00;100.00;102225.03;5099130;28;20863;-47
2023/02/14 03:12:33;;;;;;;3.20;3.00;;;;;;;-0.85;100.00;102230.09;5084569;28;20541;-48
2023/02/14 03:15:29;;;;;;;2.47;2.17;;;;;;;-0.88;100.00;102229.06;5106012;28;20448;-48
2023/02/14 03:21:12;;;;;;;2.13;2.03;;;;;;;-0.74;100.00;102233.25;5095038;28;20493;-47
2023/02/14 03:23:52;;;;;;;13.93;2.00;;;;;;;-0.66;100.00;102224.97;5102194;28;20916;-47
2023/02/14 03:26:30;;;;;;;2.20;2.13;;;;;;;-0.65;100.00;102231.97;5098704;28;20439;-47
2023/02/14 03:29:14;;;;;;;11.40;1.90;;;;;;;-0.59;100.00;102231.38;5105374;28;20850;-48
2023/02/14 03:32:10;;;;;;;2.60;1.93;;;;;;;-0.51;100.00;102226.53;5089135;28;20872;-47
2023/02/14 03:35:03;;;;;;;4.90;4.50;;;;;;;-0.62;100.00;102234.72;5098968;28;20980;-51
2023/02/14 03:37:35;;;;;;;2.00;1.03;;;;;;;-0.63;100.00;102226.81;5098675;28;20451;-52
2023/02/14 03:40:07;;;;;;;6.60;2.00;;;;;;;-0.55;100.00;102235.91;5101855;28;20844;-52
2023/02/14 03:42:45;;;;;;;1.53;1.43;;;;;;;-0.52;100.00;102228.25;5105882;28;20532;-51
2023/02/14 03:45:26;;;;;;;1.33;1.23;;;;;;;-0.60;100.00;102242.63;5105212;28;20443;-51
2023/02/14 03:47:54;;;;;;;1.23;1.13;;;;;;;-0.51;100.00;102237.88;5104329;28;20876;-52
2023/02/14 03:50:21;;;;;;;1.33;1.23;;;;;;;-0.54;100.00;102234.22;5105174;28;20470;-51
2023/02/14 03:52:52;;;;;;;2.20;1.40;;;;;;;-0.55;100.00;102232.41;5102501;28;20456;-51
2023/02/14 03:55:31;;;;;;;0.30;0.30;;;;;;;-0.55;100.00;102235.91;5105318;28;20444;-50
2023/02/14 03:58:06;;;;;;;5.40;1.13;;;;;;;-0.50;100.00;102237.03;5102987;28;20483;-51
2023/02/14 04:00:37;;;;;;;0.57;0.57;;;;;;;-0.44;100.00;102234.69;5098493;28;20833;-52
2023/02/14 04:03:10;;;;;;;3.07;2.77;;;;;;;-0.50;100.00;102243.97;5099287;28;20449;-51
2023/02/14 04:05:42;;;;;;;1.90;1.80;;;;;;;-0.57;100.00;102237.53;5087768;28;20881;-52
2023/02/14 04:08:10;;;;;;;8.00;1.40;;;;;;;-0.60;100.00;102240.91;5084866;28;20444;-52
2023/02/14 04:10:38;;;;;;;2.57;2.37;;;;;;;-0.60;100.00;102243.53;5107264;28;20840;-52
2023/02/14 04:13:05;;;;;;;2.43;2.33;;;;;;;-0.56;100.00;102247.16;5109052;28;20809;-51
2023/02/14 04:15:31;;;;;;;0.70;0.70;;;;;;;-0.55;100.00;102248.06;5104076;28;20452;-52
2023/02/14 04:20:43;;;;;;;1.00;1.00;;;;;;;-0.43;100.00;102236.50;5104806;28;20476;-52
2023/02/14 04:23:09;;;;;;;2.67;2.57;;;;;;;-0.40;100.00;102241.00;5101784;28;20448;-51
2023/02/14 04:25:38;;;;;;;3.77;3.17;;;;;;;-0.36;100.00;102242.91;5103201;28;20585;-52
2023/02/14 04:28:05;;;;;;;1.70;1.60;;;;;;;-0.34;100.00;102242.16;5108008;28;20539;-51
2023/02/14 04:30:31;;;;;;;0.77;0.67;;;;;;;-0.38;100.00;102242.84;5102245;28;20492;-52
2023/02/14 04:32:58;;;;;;;0.77;0.70;;;;;;;-0.34;100.00;102246.50;5108667;28;20453;-52
2023/02/14 04:35:24;;;;;;;3.43;2.40;;;;;;;-0.45;100.00;102251.19;5108395;28;20478;-51
2023/02/14 04:37:50;;;;;;;0.70;0.70;;;;;;;-0.42;100.00;102255.66;5101638;28;20488;-51
2023/02/14 04:40:17;;;;;;;0.40;0.40;;;;;;;-0.51;100.00;102247.41;5101381;28;20472;-52
2023/02/14 04:42:44;;;;;;;1.90;1.80;;;;;;;-0.60;100.00;102248.75;5108159;28;20494;-51
2023/02/14 04:45:11;;;;;;;0.93;0.90;;;;;;;-0.41;100.00;102247.00;5108366;28;20455;-50
2023/02/14 04:47:38;;;;;;;3.00;1.83;;;;;;;-0.42;100.00;102247.81;5083915;28;20455;-50
2023/02/14 04:50:05;;;;;;;3.30;3.10;;;;;;;-0.66;100.00;102252.78;5101085;28;20972;-49
2023/02/14 04:52:32;;;;;;;20.60;2.70;;;;;;;-0.53;100.00;102249.97;5106010;28;20448;-50
2023/02/14 04:54:58;;;;;;;1.70;1.70;;;;;;;-0.56;100.00;102254.13;5100962;28;20880;-50
2023/02/14 04:57:25;;;;;;;2.20;2.10;;;;;;;-0.77;100.00;102239.22;5106850;28;20453;-50
2023/02/14 04:59:51;;;;;;;1.70;1.60;;;;;;;-0.53;100.00;102249.97;5107735;28;20488;-50
2023/02/14 05:02:17;;;;;;;2.10;1.03;;;;;;;-0.72;100.00;102245.53;5103176;28;20870;-50
2023/02/14 05:04:44;;;;;;;1.60;1.50;;;;;;;-0.68;100.00;102241.38;5101209;28;20867;-50
2023/02/14 05:07:11;;;;;;;1.23;1.13;;;;;;;-0.70;100.00;102237.78;5105831;28;21007;-50
2023/02/14 05:09:37;;;;;;;5.60;1.77;;;;;;;-0.45;100.00;102232.91;5107937;28;20444;-51
2023/02/14 05:12:04;;;;;;;0.60;0.60;;;;;;;-0.45;100.00;102232.03;5103156;28;20957;-50
2023/02/14 05:14:30;;;;;;;4.53;1.03;;;;;;;-0.56;100.00;102233.22;5100464;28;20821;-50
2023/02/14 05:16:57;;;;;;;2.73;1.43;;;;;;;-0.48;100.00;102230.16;5104709;28;20471;-50
2023/02/14 05:19:23;;;;;;;1.13;1.03;;;;;;;-0.51;100.00;102230.03;5107762;28;21015;-50
2023/02/14 05:21:50;;;;;;;1.53;1.43;;;;;;;-0.53;100.00;102236.91;5096839;28;20847;-50
2023/02/14 05:24:16;;;;;;;1.17;1.00;;;;;;;-0.55;100.00;102235.00;5107824;28;20455;-50
2023/02/14 05:26:43;;;;;;;1.17;1.17;;;;;;;-0.63;100.00;102232.94;5100664;28;20444;-50
2023/02/14 05:29:09;;;;;;;1.83;1.20;;;;;;;-0.34;100.00;102228.19;5107326;28;20817;-51
2023/02/14 05:31:36;;;;;;;4.03;1.40;;;;;;;-0.33;100.00;102230.00;5102013;28;20471;-49
2023/02/14 05:34:02;;;;;;;1.10;1.10;;;;;;;-0.66;100.00;102231.91;5100531;28;20445;-50
2023/02/14 05:36:29;;;;;;;0.70;0.60;;;;;;;-0.72;100.00;102234.22;5106358;28;20536;-50
2023/02/14 05:38:55;;;;;;;5.97;1.03;;;;;;;-0.87;100.00;102228.25;5107232;28;21054;-50
2023/02/14 05:41:22;;;;;;;1.07;1.07;;;;;;;-0.70;100.00;102225.63;5102215;28;20460;-50
2023/02/14 05:43:48;;;;;;;0.77;0.63;;;;;;;-0.56;100.00;102221.06;5100231;28;20467;-50
2023/02/14 05:46:15;;;;;;;1.93;1.83;;;;;;;-0.50;100.00;102231.81;5106007;28;20441;-50
2023/02/14 05:48:41;;;;;;;0.50;0.50;;;;;;;-0.48;100.00;102227.56;5107410;28;20451;-50
2023/02/14 05:51:09;;;;;;;3.70;1.60;;;;;;;-0.47;100.00;102228.44;5096692;28;20465;-49
2023/02/14 05:53:37;;;;;;;1.03;1.03;;;;;;;-0.53;100.00;102222.94;5107276;28;20525;-50
2023/02/14 05:56:04;;;;;;;3.03;2.83;;;;;;;-0.28;100.00;102230.19;5102180;28;20448;-51
2023/02/14 05:58:30;;;;;;;1.03;1.03;;;;;;;-0.56;100.00;102239.34;5099718;28;20481;-50
2023/02/14 06:00:58;;;;;;;0.93;0.93;;;;;;;-0.64;100.00;102238.09;5105175;28;20530;-50
2023/02/14 06:03:25;;;;;;;2.47;2.33;;;;;;;-0.62;100.00;102241.66;5106775;28;20456;-51
2023/02/14 06:05:51;;;;;;;1.10;1.10;;;;;;;-0.46;100.00;102238.97;5102602;28;20448;-51
2023/02/14 06:08:17;;;;;;;0.50;0.30;;;;;;;-0.41;100.00;102231.34;5099940;28;20498;-50
2023/02/14 06:10:45;;;;;;;0.80;0.80;;;;;;;-0.52;100.00;102235.19;5103958;28;20472;-50
2023/02/14 06:13:11;;;;;;;1.27;1.27;;;;;;;-0.57;100.00;102242.78;5107029;28;20493;-50
2023/02/14 06:15:38;;;;;;;3.47;3.30;;;;;;;-0.54;100.00;102242.06;5102931;28;20455;-50
2023/02/14 06:18:05;;;;;;;2.10;1.90;;;;;;;-0.56;100.00;102236.72;5099663;28;20501;-51
2023/02/14 06:20:31;;;;;;;15.37;2.03;;;;;;;-0.53;100.00;102236.91;5102597;28;20475;-50
2023/02/14 06:22:58;;;;;;;1.90;1.80;;;;;;;-0.51;100.00;102229.13;5103697;28;20449;-50
2023/02/14 06:25:24;;;;;;;0.67;0.67;;;;;;;-0.44;100.00;102244.25;5103781;28;20452;-50
2023/02/14 06:27:55;;;;;;;4.33;1.50;;;;;;;-0.38;100.00;102245.47;5088475;28;20476;-50
2023/02/14 06:30:22;;;;;;;3.13;1.60;;;;;;;-0.31;100.00;102244.91;5104554;28;20456;-50
2023/02/14 06:32:49;;;;;;;1.40;0.87;;;;;;;-0.33;100.00;102249.16;5099575;28;20456;-50
2023/02/14 06:35:16;;;;;;;1.07;1.07;;;;;;;-0.35;100.00;102252.53;5100982;28;20440;-51
2023/02/14 06:37:44;;;;;;;5.10;0.40;;;;;;;-0.34;100.00;102263.06;5106298;28;20818;-51
2023/02/14 06:40:11;;;;;;;7.43;2.43;;;;;;;-0.25;100.00;102262.59;5104973;28;20574;-50
2023/02/14 06:42:38;;;;;;;0.70;0.70;;;;;;;-0.10;100.00;102265.03;5099412;28;20504;-51
2023/02/14 06:45:05;;;;;;;1.70;1.57;;;;;;;-0.18;100.00;102267.28;5100154;28;20827;-50
2023/02/14 06:47:31;;;;;;;2.07;1.87;;;;;;;-0.23;100.00;102263.56;5106698;28;20476;-50
2023/02/14 06:50:03;;;;;;;1.10;1.07;;;;;;;-0.26;100.00;102270.38;5105806;28;20448;-50
2023/02/14 06:52:30;;;;;;;1.73;1.67;;;;;;;-0.42;100.00;102269.63;5102730;28;21005;-50
2023/02/14 06:54:57;;;;;;;1.23;1.23;;;;;;;-0.32;100.00;102277.09;5099024;28;21044;-50
2023/02/14 06:57:23;;;;;;;3.33;3.03;;;;;;;-0.36;100.00;102262.09;5106083;28;20518;-51
2023/02/14 06:59:49;;;;;;;13.93;4.73;;;;;;;-0.25;100.00;102267.84;5106061;28;20495;-50
2023/02/14 07:02:16;;;;;;;1.73;1.63;;;;;;;-0.39;100.00;102279.34;5099408;28;20477;-51
2023/02/14 07:04:42;;;;;;;5.93;2.30;;;;;;;-0.44;100.00;102271.25;5099017;28;20456;-49
2023/02/14 07:07:09;;;;;;;16.00;3.00;;;;;;;-0.24;100.00;102269.63;5105665;28;20444;-51
2023/02/14 07:09:35;;;;;;;2.70;1.70;;;;;;;-0.29;100.00;102273.72;5105905;28;20445;-51
2023/02/14 07:12:02;;;;;;;1.23;1.20;;;;;;;-0.29;100.00;102271.09;5099235;28;20479;-51
2023/02/14 07:14:28;;;;;;;2.93;2.67;;;;;;;-0.35;100.00;102269.09;5099164;28;20459;-50
2023/02/14 07:16:54;;;;;;;4.73;2.17;;;;;;;-0.17;100.00;102271.69;5099169;28;20456;-50
2023/02/14 07:19:21;;;;;;;0.83;0.83;;;;;;;-0.30;100.00;102272.81;5098475;28;20571;-50
2023/02/14 07:21:47;;;;;;;0.53;0.50;;;;;;;-0.17;100.00;102271.69;5094725;28;20476;-51
2023/02/14 07:24:14;;;;;;;1.30;1.30;;;;;;;-0.27;100.00;102261.66;5105423;28;20492;-50
2023/02/14 07:26:40;;;;;;;2.70;2.60;;;;;;;-0.27;100.00;102271.16;5099563;28;20863;-50
2023/02/14 07:29:07;;;;;;;1.07;0.90;;;;;;;-0.23;100.00;102260.06;5105700;28;20444;-51
2023/02/14 07:31:33;;;;;;;1.03;1.03;;;;;;;-0.22;100.00;102265.34;5100336;28;20507;-50
2023/02/14 07:34:00;;;;;;;0.87;0.83;;;;;;;-0.16;100.00;102276.09;5098501;28;20529;-50
2023/02/14 07:36:27;;;;;;;4.90;3.20;;;;;;;-0.07;100.00;102262.56;5104467;28;20456;-51
2023/02/14 07:38:55;;;;;;;0.70;0.70;;;;;;;-0.04;100.00;102266.19;5105862;28;20491;-50
2023/02/14 07:41:22;;;;;;;3.63;3.33;;;;;;;0.06;100.00;102270.16;5103811;28;20836;-50
2023/02/14 07:43:48;;;;;;;0.80;0.80;;;;;;;0.08;100.00;102271.09;5102599;28;20449;-50
2023/02/14 07:46:16;;;;;;;1.13;0.83;;;;;;;0.07;100.00;102276.25;5107177;28;20955;-51
2023/02/14 07:48:43;;;;;;;1.23;1.23;;;;;;;0.24;100.00;102285.75;5109425;28;20487;-51
2023/02/14 07:51:10;;;;;;;2.47;2.27;;;;;;;0.37;100.00;102268.91;5099876;28;20533;-51
2023/02/14 07:53:36;;;;;;;3.13;2.93;;;;;;;0.44;100.00;102273.59;5109552;28;20490;-51
2023/02/14 07:56:03;;;;;;;1.53;1.53;;;;;;;0.52;100.00;102278.31;5105046;28;21000;-50
2023/02/14 07:58:29;;;;;;;2.10;2.00;;;;;;;0.58;100.00;102280.34;5102345;28;20448;-51
2023/02/14 08:00:56;;;;;;;5.73;2.10;;;;;;;0.65;100.00;102282.38;5106494;28;20522;-50
2023/02/14 08:03:22;;;;;;;1.43;1.33;;;;;;;0.49;100.00;102280.81;5109202;28;20994;-51
2023/02/14 08:05:55;;;;;;;4.17;3.97;;;;;;;0.51;100.00;102276.53;5105047;28;20443;-50
2023/02/14 08:08:28;;;;;;;3.13;2.73;;;;;;;0.42;100.00;102280.50;5102491;28;20448;-51
2023/02/14 08:10:54;;;;;;;0.67;0.67;;;;;;;0.51;100.00;102280.88;5104562;28;20464;-50
2023/02/14 08:13:21;;;;;;;5.17;3.87;;;;;;;0.49;100.00;102278.19;5109122;28;21006;-51
2023/02/14 08:16:03;;;;;;;1.73;1.60;;;;;;;0.53;100.00;102279.22;5106479;28;20443;-51
2023/02/14 08:18:32;;;;;;;4.07;3.87;;;;;;;0.59;100.00;102276.91;5101798;28;20443;-51
2023/02/14 08:20:59;;;;;;;3.60;3.20;;;;;;;0.67;100.00;102278.09;5103685;28;20490;-51
2023/02/14 08:23:26;;;;;;;4.47;2.00;;;;;;;0.80;100.00;102279.53;5103311;28;20471;-51
2023/02/14 08:25:52;;;;;;;2.93;2.53;;;;;;;0.55;100.00;102278.50;5102196;28;20791;-50
2023/02/14 08:28:19;;;;;;;2.73;1.70;;;;;;;0.61;100.00;102276.97;5090640;28;20547;-50
2023/02/14 08:30:49;;;;;;;1.50;1.37;;;;;;;0.71;100.00;102279.16;5101680;28;20879;-51
2023/02/14 08:33:15;;;;;;;2.10;1.33;;;;;;;0.85;100.00;102273.69;5107215;28;20449;-51
2023/02/14 08:35:42;;;;;;;1.70;1.60;;;;;;;0.84;100.00;102276.25;5108710;28;20470;-51
2023/02/14 08:38:09;;;;;;;4.83;3.20;;;;;;;0.85;100.00;102276.31;5103732;28;20444;-50
2023/02/14 08:40:36;;;;;;;4.03;1.80;;;;;;;0.95;100.00;102274.06;5101534;28;20492;-51
2023/02/14 08:43:06;;;;;;;1.80;1.70;;;;;;;1.09;100.00;102284.28;5106503;28;20790;-51
2023/02/14 08:45:33;;;;;;;2.20;1.63;;;;;;;0.87;100.00;102274.63;5108453;28;20530;-51
2023/02/14 08:48:02;;;;;;;1.80;1.70;;;;;;;1.02;100.00;102278.75;5104508;28;20444;-51
2023/02/14 08:50:28;;;;;;;8.77;3.23;;;;;;;0.95;100.00;102281.91;5101275;28;20551;-51
2023/02/14 08:52:54;;;;;;;8.00;3.47;;;;;;;1.21;100.00;102285.63;5104391;28;20448;-51
2023/02/14 08:55:21;;;;;;;2.07;1.83;;;;;;;1.23;100.00;102281.34;5100905;28;20507;-51
2023/02/14 08:57:48;;;;;;;1.60;1.50;;;;;;;1.54;100.00;102286.13;5105419;28;20453;-51
2023/02/14 09:00:15;;;;;;;1.90;1.50;;;;;;;1.41;100.00;102275.16;5108271;28;20496;-51
2023/02/14 09:02:41;;;;;;;2.07;2.00;;;;;;;1.38;100.00;102276.75;5104472;28;20530;-51
2023/02/14 09:05:09;;;;;;;5.37;2.93;;;;;;;1.53;100.00;102284.34;5083262;28;20497;-51
2023/02/14 09:07:36;;;;;;;3.13;2.87;;;;;;;1.48;100.00;102286.75;5104465;28;20445;-51
2023/02/14 09:10:03;;;;;;;4.00;2.17;;;;;;;1.70;100.00;102297.28;5107778;28;20552;-51
2023/02/14 09:12:29;;;;;;;2.23;1.60;;;;;;;1.64;100.00;102283.03;5105397;28;20444;-51
2023/02/14 09:14:56;;;;;;;5.30;3.10;;;;;;;1.71;100.00;102277.22;5101001;28;20531;-52
2023/02/14 09:17:22;;;;;;;2.00;1.80;;;;;;;1.78;100.00;102273.97;5104157;28;20448;-51
2023/02/14 09:19:49;;;;;;;12.03;4.20;;;;;;;1.69;100.00;102274.53;5107465;28;20476;-50
2023/02/14 09:22:18;;;;;;;7.03;2.90;;;;;;;1.70;100.00;102284.19;5096873;28;20508;-50
2023/02/14 09:24:44;;;;;;;8.23;2.43;;;;;;;1.71;100.00;102279.81;5108195;28;20448;-50
2023/02/14 09:27:10;;;;;;;4.30;1.33;;;;;;;1.87;100.00;102276.97;5101468;28;20463;-51
2023/02/14 09:29:37;;;;;;;11.50;4.40;;;;;;;1.90;100.00;102276.19;5107410;28;20788;-49
2023/02/14 09:32:03;;;;;;;3.43;2.40;;;;;;;1.99;100.00;102276.53;5094079;28;20469;-54
2023/02/14 09:37:18;;;;;;;1.80;1.70;;;;;;;2.49;100.00;102270.56;5089504;28;20469;-53
2023/02/14 09:39:44;;;;;;;3.10;3.00;;;;;;;2.35;100.00;102270.06;5093636;28;20538;-54
2023/02/14 09:42:33;;;;;;;7.27;2.80;;;;;;;2.20;100.00;102266.88;5093712;28;20907;-53
2023/02/14 09:45:10;;;;;;;4.20;3.67;;;;;;;2.19;100.00;102264.19;5073467;28;20961;-54
2023/02/14 09:47:59;;;;;;;8.30;3.63;;;;;;;2.19;100.00;102267.69;5073237;28;20934;-54
2023/02/14 09:50:33;;;;;;;7.90;4.67;;;;;;;2.23;100.00;102261.75;5073244;28;20449;-53
2023/02/14 09:53:31;;;;;;;2.70;2.50;;;;;;;2.60;100.00;102257.81;5053272;28;20482;-54
2023/02/14 09:56:07;;;;;;;13.67;5.30;;;;;;;2.35;100.00;102258.69;5044623;28;20451;-55
2023/02/14 09:59:02;;;;;;;4.03;2.63;;;;;;;2.82;100.00;102260.38;5073188;28;20453;-53
2023/02/14 10:01:38;;;;;;;5.33;3.13;;;;;;;2.88;100.00;102259.69;5072917;28;20448;-54
2023/02/14 10:04:19;;;;;;;3.60;3.20;;;;;;;2.67;100.00;102259.81;5054784;28;20560;-55
2023/02/14 10:07:15;;;;;;;6.00;3.80;;;;;;;2.84;100.00;102257.78;5073149;28;20841;-54
2023/02/14 10:10:09;;;;;;;2.07;1.77;;;;;;;2.61;100.00;102254.38;5072848;28;20453;-54
2023/02/14 10:12:42;;;;;;;7.57;3.90;;;;;;;2.83;100.00;102256.91;5072957;28;20597;-54
2023/02/14 10:15:17;;;;;;;4.60;3.10;;;;;;;2.66;100.00;102251.06;5059711;28;20446;-54
2023/02/14 10:17:46;;;;;;;6.53;4.40;;;;;;;2.53;100.00;102259.34;5072706;28;20495;-54
2023/02/14 10:20:24;;;;;;;5.17;3.40;;;;;;;2.49;100.00;102257.44;5072469;28;20478;-54
2023/02/14 10:23:15;;;;;;;10.10;4.80;;;;;;;2.41;100.00;102248.41;5058729;28;20525;-54
2023/02/14 10:25:52;;;;;;;6.50;5.83;;;;;;;2.36;100.00;102250.88;5073088;28;20449;-54
2023/02/14 10:28:29;;;;;;;22.67;5.70;;;;;;;2.46;100.00;102244.19;5064576;28;20962;-54
2023/02/14 10:31:16;;;;;;;4.83;4.53;;;;;;;2.53;100.00;102250.56;5068644;28;20456;-55
2023/02/14 10:33:49;;;;;;;9.50;3.73;;;;;;;2.49;100.00;102249.56;5072646;28;20993;-54
2023/02/14 10:36:53;;;;;;;7.67;4.97;;;;;;;2.52;100.00;102256.66;5072465;28;20927;-54
2023/02/14 10:39:46;;;;;;;3.27;2.03;;;;;;;2.69;100.00;102245.03;5072353;28;20449;-54
2023/02/14 10:42:31;;;;;;;8.97;3.87;;;;;;;2.94;100.00;102254.66;5072506;28;20900;-54
2023/02/14 10:45:26;;;;;;;10.53;2.30;;;;;;;2.43;100.00;102244.09;5072493;28;20452;-54
2023/02/14 10:48:04;;;;;;;14.50;3.30;;;;;;;2.48;100.00;102241.66;5052481;28;20442;-54
2023/02/14 10:50:42;;;;;;;6.23;2.63;;;;;;;2.28;100.00;102238.28;5069614;28;20477;-54
2023/02/14 10:53:44;;;;;;;13.23;6.00;;;;;;;2.59;100.00;102240.28;5052451;28;20466;-54
2023/02/14 10:56:35;;;;;;;17.83;4.10;;;;;;;2.47;100.00;102230.25;5062873;28;20868;-54
2023/02/14 10:59:18;;;;;;;4.90;4.20;;;;;;;2.87;100.00;102221.13;5060165;28;20445;-54
2023/02/14 11:01:45;;;;;;;16.80;3.03;;;;;;;2.82;100.00;102218.34;5072397;28;20480;-53
2023/02/14 11:04:15;;;;;;;13.80;3.90;;;;;;;3.00;100.00;102209.28;5072168;28;20469;-54
2023/02/14 11:06:42;;;;;;;5.23;4.73;;;;;;;3.07;100.00;102216.56;5072010;28;20543;-54
2023/02/14 11:09:11;;;;;;;5.80;4.63;;;;;;;3.07;100.00;102211.28;5072278;28;20920;-54
2023/02/14 11:11:43;;;;;;;20.97;7.07;;;;;;;2.97;100.00;102215.34;5072240;28;20446;-54
2023/02/14 11:14:22;;;;;;;8.07;5.07;;;;;;;3.09;100.00;102201.72;5072308;28;20465;-54
2023/02/14 11:16:50;;;;;;;8.80;3.60;;;;;;;3.22;100.00;102201.28;5075929;28;20875;-54
2023/02/14 11:19:19;;;;;;;22.53;4.90;;;;;;;2.86;100.00;102203.56;5075947;28;20449;-54
2023/02/14 11:21:49;;;;;;;6.00;3.17;;;;;;;2.71;100.00;102196.06;5069204;28;20542;-54
2023/02/14 11:24:27;;;;;;;18.63;3.57;;;;;;;2.60;100.00;102198.38;5070721;28;20471;-54
2023/02/14 11:27:03;;;;;;;17.23;3.77;;;;;;;2.69;100.00;102192.50;5058247;28;20982;-54
2023/02/14 11:29:52;;;;;;;5.53;3.40;;;;;;;2.89;100.00;102195.84;5062369;28;20445;-55
2023/02/14 11:32:25;;;;;;;8.53;2.47;;;;;;;2.85;100.00;102196.53;5076147;28;20456;-54
2023/02/14 11:34:59;;;;;;;5.00;4.10;;;;;;;2.91;100.00;102188.88;5076188;28;20465;-54
2023/02/14 11:37:29;;;;;;;4.63;3.70;;;;;;;2.78;100.00;102181.44;5075913;28;20442;-53
2023/02/14 11:39:59;;;;;;;6.30;5.53;;;;;;;2.70;100.00;102188.16;5075728;28;20486;-54
2023/02/14 11:42:42;;;;;;;5.03;3.10;;;;;;;2.78;100.00;102178.81;5075835;28;20454;-54
2023/02/14 11:45:31;;;;;;;13.47;2.77;;;;;;;2.90;100.00;102182.75;5075721;28;20536;-54
2023/02/14 11:48:19;;;;;;;0.93;0.90;;;;;;;2.93;100.00;102177.59;5054905;28;20458;-55
2023/02/14 11:51:13;;;;;;;7.47;3.50;;;;;;;2.88;100.00;102178.28;5059917;28;20452;-54
2023/02/14 11:53:46;;;;;;;15.13;6.00;;;;;;;2.68;100.00;102164.47;5075568;28;20469;-54
2023/02/14 11:56:15;;;;;;;11.10;6.27;;;;;;;2.58;100.00;102165.88;5075538;28;20791;-54
2023/02/14 11:59:02;;;;;;;11.97;4.03;;;;;;;2.59;100.00;102159.78;5075244;28;20457;-54
2023/02/14 12:01:31;;;;;;;8.80;4.30;;;;;;;2.46;100.00;102164.56;5075154;28;20501;-54